Time;durP1;ratioP1;P1;durP2;ratioP2;P2;SDS_P1;SDS_P2;PMS_P1;PMS_P2;Temp;Humidity;BMP_temperature;BMP_pressure;BME280_temperature;BME280_humidity;BME280_pressure;Samples;Min_cycle;Max_cycle;Signal;HPM_P1;HPM_P2
2023/03/31 00:01:03;;;;;;;;;;;12.50;99.90;;;;;;6212613;23;19907;-90
2023/03/31 00:03:28;;;;;;;;;;;12.50;99.90;;;;;;6212807;23;19958;-89
2023/03/31 00:05:56;;;;;;;;;;;12.60;99.90;;;;;;6212138;23;19983;-88
2023/03/31 00:08:22;;;;;;;;;;;12.60;99.90;;;;;;6212960;23;19911;-88
2023/03/31 00:10:48;;;;;;;;;;;12.40;99.90;;;;;;6211390;23;19903;-89
2023/03/31 00:13:13;;;;;;;;;;;12.50;99.90;;;;;;6212881;23;19908;-90
2023/03/31 00:15:40;;;;;;;;;;;12.40;99.90;;;;;;6212324;23;19908;-93
2023/03/31 00:18:05;;;;;;;;;;;12.50;99.90;;;;;;6213158;23;19908;-90
2023/03/31 00:20:32;;;;;;;;;;;12.40;99.90;;;;;;6215152;23;19914;-90
2023/03/31 00:23:00;;;;;;;;;;;12.40;99.90;;;;;;6214772;23;19927;-89
2023/03/31 00:25:26;;;;;;;;;;;12.50;99.90;;;;;;6216400;23;19935;-89
2023/03/31 00:27:51;;;;;;;;;;;12.40;99.90;;;;;;6217798;23;19915;-91
2023/03/31 00:30:17;;;;;;;;;;;12.40;99.90;;;;;;6219858;23;20267;-91
2023/03/31 00:32:43;;;;;;;;;;;12.50;99.90;;;;;;6219259;23;19904;-90
2023/03/31 00:35:09;;;;;;;;;;;12.30;99.90;;;;;;6215476;23;19911;-90
2023/03/31 00:37:34;;;;;;;;;;;12.50;99.90;;;;;;6215016;23;19942;-91
2023/03/31 00:40:00;;;;;;;;;;;12.40;99.90;;;;;;6212966;23;20384;-91
2023/03/31 00:42:26;;;;;;;;;;;12.40;99.90;;;;;;6214256;23;19908;-91
2023/03/31 00:45:11;;;;;;;;;;;12.40;99.90;;;;;;6213395;23;20356;-90
2023/03/31 00:47:37;;;;;;;;;;;12.40;99.90;;;;;;6238580;23;19904;-91
2023/03/31 00:50:02;;;;;;;;;;;12.30;99.90;;;;;;6214577;23;19904;-92
2023/03/31 00:52:36;;;;;;;;;;;12.30;99.90;;;;;;6217086;23;19904;-93
2023/03/31 00:55:16;;;;;;;;;;;12.30;99.90;;;;;;6219803;23;19907;-91
2023/03/31 00:57:44;;;;;;;;;;;12.20;99.90;;;;;;6222528;23;19916;-92
2023/03/31 01:00:26;;;;;;;;;;;12.30;99.90;;;;;;6217559;23;19910;-92
2023/03/31 01:02:57;;;;;;;;;;;12.30;99.90;;;;;;6215350;23;19908;-91
2023/03/31 01:05:28;;;;;;;;;;;12.30;99.90;;;;;;6215944;23;19926;-93
2023/03/31 01:07:54;;;;;;;;;;;12.30;99.90;;;;;;6217978;23;20321;-91
2023/03/31 01:10:22;;;;;;;;;;;12.10;99.90;;;;;;6217171;23;19904;-92
2023/03/31 01:12:53;;;;;;;;;;;12.00;99.90;;;;;;6213505;23;19931;-93
2023/03/31 01:15:28;;;;;;;;;;;12.10;99.90;;;;;;6217385;23;19904;-92
2023/03/31 01:17:56;;;;;;;;;;;12.00;99.90;;;;;;6192077;23;19912;-93
2023/03/31 01:20:30;;;;;;;;;;;11.90;99.90;;;;;;6214649;23;19931;-90
2023/03/31 01:23:01;;;;;;;;;;;11.90;99.90;;;;;;6238668;23;19987;-93
2023/03/31 01:26:00;;;;;;;;;;;;;;;;;;;;;
2023/03/31 01:29:02;;;;;;;;;;;11.90;99.90;;;;;;6218072;23;19985;-93
2023/03/31 01:31:49;;;;;;;;;;;11.80;99.90;;;;;;6217885;23;19936;-93
2023/03/31 01:34:40;;;;;;;;;;;11.80;99.90;;;;;;6188124;23;19928;-91
2023/03/31 01:37:34;;;;;;;;;;;11.90;99.90;;;;;;6161635;23;20377;-93
2023/03/31 01:40:38;;;;;;;;;;;11.80;99.90;;;;;;6159220;23;19919;-92
2023/03/31 01:43:18;;;;;;;;;;;11.80;99.90;;;;;;6163271;23;19944;-92
2023/03/31 01:45:46;;;;;;;;;;;11.80;99.90;;;;;;6184404;23;19905;-94
2023/03/31 01:48:25;;;;;;;;;;;11.80;99.90;;;;;;6185539;23;19908;-93
2023/03/31 01:54:05;;;;;;;;;;;11.80;99.90;;;;;;6166900;23;20296;-92
2023/03/31 01:56:49;;;;;;;;;;;11.80;99.90;;;;;;6181018;23;19913;-93
2023/03/31 01:59:22;;;;;;;;;;;11.80;99.90;;;;;;6182536;23;20010;-93
2023/03/31 02:01:56;;;;;;;;;;;11.80;99.90;;;;;;6175191;23;19989;-91
2023/03/31 02:04:25;;;;;;;;;;;11.70;99.90;;;;;;6150948;23;19909;-91
2023/03/31 02:06:55;;;;;;;;;;;10.50;99.90;;;;;;6209808;23;19962;-92
2023/03/31 02:09:22;;;;;;;;;;;11.70;99.90;;;;;;6184911;23;19911;-90
2023/03/31 02:11:49;;;;;;;;;;;11.80;99.90;;;;;;6211272;23;19942;-92
2023/03/31 02:14:20;;;;;;;;;;;11.60;99.90;;;;;;6186297;23;19904;-94
2023/03/31 02:16:48;;;;;;;;;;;11.60;99.90;;;;;;6197368;23;19912;-91
2023/03/31 02:19:19;;;;;;;;;;;11.50;99.90;;;;;;6211596;23;19910;-91
2023/03/31 02:21:49;;;;;;;;;;;11.50;99.90;;;;;;6213906;23;19911;-91
2023/03/31 02:24:16;;;;;;;;;;;11.50;99.90;;;;;;6214248;23;20313;-91
2023/03/31 02:26:46;;;;;;;;;;;11.60;99.90;;;;;;6214424;23;20252;-92
2023/03/31 02:29:12;;;;;;;;;;;11.70;99.90;;;;;;6237910;23;19908;-93
2023/03/31 02:31:41;;;;;;;;;;;11.60;99.90;;;;;;6211630;23;20248;-94
2023/03/31 02:34:07;;;;;;;;;;;11.50;99.90;;;;;;6237518;23;19904;-90
2023/03/31 02:36:36;;;;;;;;;;;11.70;99.90;;;;;;6213298;23;19947;-93
2023/03/31 02:39:07;;;;;;;;;;;11.70;99.90;;;;;;6211847;23;19916;-92
2023/03/31 02:41:36;;;;;;;;;;;;;;;;;;6213150;23;19957;-90
2023/03/31 02:44:02;;;;;;;;;;;11.50;99.90;;;;;;6237484;23;19958;-94
2023/03/31 02:46:28;;;;;;;;;;;11.60;99.90;;;;;;6211458;23;19908;-92
2023/03/31 02:48:56;;;;;;;;;;;11.50;99.90;;;;;;6236937;23;19912;-90
2023/03/31 02:51:36;;;;;;;;;;;11.50;99.90;;;;;;6213159;23;19908;-94
2023/03/31 02:54:23;;;;;;;;;;;11.50;99.90;;;;;;6235987;23;19908;-91
2023/03/31 02:57:02;;;;;;;;;;;11.40;99.90;;;;;;6213365;23;19912;-95
2023/03/31 02:59:46;;;;;;;;;;;11.40;99.90;;;;;;6210521;23;19908;-91
2023/03/31 03:02:15;;;;;;;;;;;11.50;99.90;;;;;;6211807;23;20430;-93
2023/03/31 03:04:40;;;;;;;;;;;11.60;99.90;;;;;;6211687;23;19904;-92
2023/03/31 03:07:28;;;;;;;;;;;11.40;99.90;;;;;;6238862;23;19904;-93
2023/03/31 03:10:06;;;;;;;;;;;10.80;99.90;;;;;;6198493;23;19904;-93
2023/03/31 03:12:35;;;;;;;;;;;11.50;99.90;;;;;;6215986;23;19943;-92
2023/03/31 03:15:11;;;;;;;;;;;11.60;99.90;;;;;;6218695;23;19904;-93
2023/03/31 03:17:42;;;;;;;;;;;11.80;99.90;;;;;;6215069;23;19994;-93
2023/03/31 03:20:08;;;;;;;;;;;11.80;99.90;;;;;;6214137;23;19903;-93
2023/03/31 03:22:35;;;;;;;;;;;11.70;99.90;;;;;;6214968;23;20347;-92
2023/03/31 03:25:00;;;;;;;;;;;11.80;99.90;;;;;;6215381;23;19926;-92
2023/03/31 03:27:27;;;;;;;;;;;11.60;99.90;;;;;;6216266;23;19904;-93
2023/03/31 03:29:53;;;;;;;;;;;11.90;99.90;;;;;;6215856;23;19908;-92
2023/03/31 03:32:18;;;;;;;;;;;11.60;99.90;;;;;;6215131;23;19911;-94
2023/03/31 03:34:47;;;;;;;;;;;11.80;99.90;;;;;;6213469;23;19943;-93
2023/03/31 03:37:12;;;;;;;;;;;11.80;99.90;;;;;;6212873;23;19966;-93
2023/03/31 03:39:38;;;;;;;;;;;11.70;99.90;;;;;;6238098;23;19937;-94
2023/03/31 03:42:04;;;;;;;;;;;11.80;99.90;;;;;;6213407;23;19904;-91
2023/03/31 03:44:30;;;;;;;;;;;11.80;99.90;;;;;;6214397;23;19904;-93
2023/03/31 03:47:03;;;;;;;;;;;11.80;99.90;;;;;;6212859;23;19904;-95
2023/03/31 03:49:29;;;;;;;;;;;11.90;99.90;;;;;;6213530;23;20241;-93
2023/03/31 03:51:54;;;;;;;;;;;11.80;99.90;;;;;;6212585;23;19904;-92
2023/03/31 03:54:20;;;;;;;;;;;11.80;99.90;;;;;;6215644;23;19910;-92
2023/03/31 03:56:46;;;;;;;;;;;11.80;99.90;;;;;;6213750;23;19911;-94
2023/03/31 03:59:11;;;;;;;;;;;12.00;99.90;;;;;;6237595;23;19904;-94
2023/03/31 04:01:40;;;;;;;;;;;11.90;99.90;;;;;;6215393;23;19904;-94
2023/03/31 04:04:06;;;;;;;;;;;11.90;99.90;;;;;;6217213;23;20022;-93
2023/03/31 04:06:32;;;;;;;;;;;11.90;99.90;;;;;;6216854;23;19966;-93
2023/03/31 04:08:58;;;;;;;;;;;12.10;99.90;;;;;;6212590;23;19903;-93
2023/03/31 04:11:23;;;;;;;;;;;12.00;99.90;;;;;;6214734;23;20218;-94
2023/03/31 04:13:49;;;;;;;;;;;12.00;99.90;;;;;;6214195;23;19910;-92
2023/03/31 04:16:16;;;;;;;;;;;11.90;99.90;;;;;;6245579;23;19939;-94
2023/03/31 05:09:15;;;;;;;;;;;10.90;99.90;;;;;;6199130;23;19957;-94
2023/03/31 05:11:41;;;;;;;;;;;11.00;99.90;;;;;;6165276;23;19919;-94
2023/03/31 05:14:17;;;;;;;;;;;11.00;99.90;;;;;;6162518;23;19909;-94
2023/03/31 05:16:59;;;;;;;;;;;11.10;99.90;;;;;;6171970;23;20336;-93
2023/03/31 05:19:28;;;;;;;;;;;11.10;99.90;;;;;;6169242;23;19904;-93
2023/03/31 05:21:57;;;;;;;;;;;11.10;99.90;;;;;;6169573;23;19927;-95
2023/03/31 05:24:32;;;;;;;;;;;;;;;;;;;;;
2023/03/31 05:27:08;;;;;;;;;;;11.40;99.90;;;;;;6192546;23;19912;-93
2023/03/31 05:29:46;;;;;;;;;;;11.20;99.90;;;;;;6172680;23;19904;-94
2023/03/31 05:32:14;;;;;;;;;;;11.20;99.90;;;;;;6173823;23;19904;-94
2023/03/31 05:34:42;;;;;;;;;;;11.10;99.90;;;;;;6168081;23;20469;-95
2023/03/31 05:37:17;;;;;;;;;;;11.30;99.90;;;;;;6175914;23;19947;-94
2023/03/31 05:42:40;;;;;;;;;;;11.20;99.90;;;;;;6205801;23;19904;-93
2023/03/31 05:45:13;;;;;;;;;;;11.30;99.90;;;;;;6207290;23;19888;-92
2023/03/31 05:48:00;;;;;;;;;;;11.30;99.90;;;;;;6179125;23;19904;-93
2023/03/31 05:50:32;;;;;;;;;;;11.30;99.90;;;;;;6179281;23;19911;-94
2023/03/31 05:53:05;;;;;;;;;;;11.30;99.90;;;;;;6201574;23;19948;-93
2023/03/31 05:55:40;;;;;;;;;;;;;;;;;;;;;
2023/03/31 05:58:10;;;;;;;;;;;11.30;99.90;;;;;;6202627;23;19905;-96
2023/03/31 06:00:39;;;;;;;;;;;11.20;99.90;;;;;;6204621;23;19912;-93
2023/03/31 06:03:10;;;;;;;;;;;11.20;99.90;;;;;;6177462;23;19904;-93
2023/03/31 06:05:41;;;;;;;;;;;11.20;99.90;;;;;;6226457;23;19918;-93
2023/03/31 06:08:11;;;;;;;;;;;11.30;99.90;;;;;;6232777;23;19910;-93
2023/03/31 06:10:56;;;;;;;;;;;12.00;99.90;;;;;;6232586;23;19904;-93
2023/03/31 06:13:33;;;;;;;;;;;11.10;99.90;;;;;;6226620;23;19931;-94
2023/03/31 06:15:59;;;;;;;;;;;11.30;99.90;;;;;;6230678;23;20329;-92
2023/03/31 06:18:30;;;;;;;;;;;11.30;99.90;;;;;;6232479;23;19987;-95
2023/03/31 06:21:20;;;;;;;;;;;11.10;99.90;;;;;;6229641;23;19940;-94
2023/03/31 06:24:04;;;;;;;;;;;11.40;99.90;;;;;;6231330;23;19911;-93
2023/03/31 06:26:30;;;;;;;;;;;11.20;99.90;;;;;;6233062;23;19907;-94
2023/03/31 06:29:20;;;;;;;;;;;11.30;99.90;;;;;;6236220;23;19903;-93
2023/03/31 06:32:05;;;;;;;;;;;11.40;99.90;;;;;;6233605;23;19888;-92
2023/03/31 06:34:35;;;;;;;;;;;11.20;99.90;;;;;;6235171;23;19915;-92
2023/03/31 06:37:00;;;;;;;;;;;11.30;99.90;;;;;;6235752;23;19916;-95
2023/03/31 06:39:26;;;;;;;;;;;11.30;99.90;;;;;;6233874;23;19927;-94
2023/03/31 06:41:54;;;;;;;;;;;10.80;99.90;;;;;;6235332;23;19888;-93
2023/03/31 06:44:23;;;;;;;;;;;11.40;99.90;;;;;;6235519;23;19987;-93
2023/03/31 06:46:54;;;;;;;;;;;11.30;99.90;;;;;;6232933;23;19911;-93
2023/03/31 06:49:24;;;;;;;;;;;11.40;99.90;;;;;;6234576;23;19952;-95
2023/03/31 06:51:51;;;;;;;;;;;11.40;99.90;;;;;;6235709;23;19904;-94
2023/03/31 06:54:27;;;;;;;;;;;11.40;99.90;;;;;;6230947;23;19904;-95
2023/03/31 06:56:53;;;;;;;;;;;11.30;99.90;;;;;;6231711;23;19916;-93
2023/03/31 06:59:19;;;;;;;;;;;11.50;99.90;;;;;;6234837;23;19888;-92
2023/03/31 07:01:52;;;;;;;;;;;11.50;99.90;;;;;;6236447;23;19910;-94
2023/03/31 07:04:17;;;;;;;;;;;11.60;99.90;;;;;;6239538;23;19892;-93
2023/03/31 07:07:09;;;;;;;;;;;11.60;99.90;;;;;;6238761;23;19910;-93
2023/03/31 07:09:51;;;;;;;;;;;11.60;99.90;;;;;;6176668;23;19905;-92
2023/03/31 07:12:37;;;;;;;;;;;11.60;99.90;;;;;;6152875;23;19924;-94
2023/03/31 07:15:12;;;;;;;;;;;11.60;99.90;;;;;;6153587;23;19936;-96
2023/03/31 07:17:40;;;;;;;;;;;11.50;99.90;;;;;;6151178;23;19927;-94
2023/03/31 07:20:31;;;;;;;;;;;11.60;99.90;;;;;;6148289;23;22063;-93
2023/03/31 07:23:26;;;;;;;;;;;11.60;99.90;;;;;;6175025;23;19940;-94
2023/03/31 07:25:53;;;;;;;;;;;11.70;99.90;;;;;;6093297;23;19905;-94
2023/03/31 07:28:21;;;;;;;;;;;11.60;99.90;;;;;;6146796;23;19904;-96
2023/03/31 07:30:46;;;;;;;;;;;11.80;99.90;;;;;;6148050;23;19904;-94
2023/03/31 07:33:20;;;;;;;;;;;11.80;99.90;;;;;;6175691;23;19905;-92
2023/03/31 07:35:47;;;;;;;;;;;11.80;99.90;;;;;;6150802;23;19913;-91
2023/03/31 07:38:14;;;;;;;;;;;11.90;99.90;;;;;;6151826;23;19909;-93
2023/03/31 07:40:48;;;;;;;;;;;11.90;99.90;;;;;;6187557;23;19904;-94
2023/03/31 07:43:20;;;;;;;;;;;12.00;99.90;;;;;;6237771;23;19904;-93
2023/03/31 07:45:47;;;;;;;;;;;11.90;99.90;;;;;;6236305;23;19904;-95
2023/03/31 07:48:19;;;;;;;;;;;11.90;99.90;;;;;;6238278;23;19888;-94
2023/03/31 07:50:50;;;;;;;;;;;12.00;99.90;;;;;;6236967;23;19924;-94
2023/03/31 07:53:16;;;;;;;;;;;12.10;99.90;;;;;;6218996;23;19904;-91
2023/03/31 07:55:42;;;;;;;;;;;12.10;99.90;;;;;;6218738;23;19931;-94
2023/03/31 07:58:10;;;;;;;;;;;12.10;99.90;;;;;;6215317;23;19927;-93
2023/03/31 08:00:43;;;;;;;;;;;12.20;99.90;;;;;;6191469;23;19915;-94
2023/03/31 08:05:57;;;;;;;;;;;12.40;99.90;;;;;;6197736;23;20117;-93
2023/03/31 08:08:23;;;;;;;;;;;12.30;99.90;;;;;;6215468;23;19908;-94
2023/03/31 08:10:49;;;;;;;;;;;12.30;99.90;;;;;;6216116;23;19951;-93
2023/03/31 08:13:15;;;;;;;;;;;12.20;99.90;;;;;;6211561;23;19911;-94
2023/03/31 08:15:40;;;;;;;;;;;12.20;99.90;;;;;;6213519;23;19907;-93
2023/03/31 08:18:07;;;;;;;;;;;12.10;99.90;;;;;;6189592;23;19908;-94
2023/03/31 08:20:33;;;;;;;;;;;12.10;99.90;;;;;;6213416;23;19904;-92
2023/03/31 08:22:59;;;;;;;;;;;12.00;99.90;;;;;;6211219;23;19978;-93
2023/03/31 08:25:25;;;;;;;;;;;12.10;99.90;;;;;;6212924;23;19904;-92
2023/03/31 08:27:53;;;;;;;;;;;12.10;99.90;;;;;;6188117;23;20076;-95
2023/03/31 08:30:19;;;;;;;;;;;12.10;99.90;;;;;;6212675;23;19915;-92
2023/03/31 08:32:45;;;;;;;;;;;12.20;99.90;;;;;;6214010;23;19950;-92
2023/03/31 08:35:10;;;;;;;;;;;12.10;99.90;;;;;;6212494;23;19995;-92
2023/03/31 08:37:36;;;;;;;;;;;12.20;99.90;;;;;;6213725;23;19966;-92
2023/03/31 08:40:08;;;;;;;;;;;12.20;99.90;;;;;;6212899;23;19904;-91
2023/03/31 08:42:46;;;;;;;;;;;12.20;99.90;;;;;;6213072;23;20225;-94
2023/03/31 08:45:21;;;;;;;;;;;12.30;99.90;;;;;;6212215;23;19954;-93
2023/03/31 08:47:47;;;;;;;;;;;12.30;99.90;;;;;;6211956;23;19983;-93
2023/03/31 08:50:18;;;;;;;;;;;12.30;99.90;;;;;;6212288;23;19904;-93
2023/03/31 08:52:47;;;;;;;;;;;12.40;99.90;;;;;;6214449;23;19904;-94
2023/03/31 08:55:22;;;;;;;;;;;12.40;99.90;;;;;;6215458;23;19895;-92
2023/03/31 08:58:01;;;;;;;;;;;12.50;99.90;;;;;;6211646;23;19915;-94
2023/03/31 09:00:29;;;;;;;;;;;12.50;99.90;;;;;;6212643;23;19911;-94
2023/03/31 09:02:58;;;;;;;;;;;12.50;99.90;;;;;;6212950;23;20279;-93
2023/03/31 09:05:30;;;;;;;;;;;12.80;99.90;;;;;;6212454;23;20325;-93
2023/03/31 09:07:56;;;;;;;;;;;12.90;99.90;;;;;;6210405;23;19995;-94
2023/03/31 09:10:22;;;;;;;;;;;13.30;99.90;;;;;;6219816;23;19904;-95
2023/03/31 09:12:50;;;;;;;;;;;13.20;99.90;;;;;;6217087;23;19904;-94
2023/03/31 09:15:42;;;;;;;;;;;13.20;99.90;;;;;;6214715;23;19962;-93
2023/03/31 09:18:25;;;;;;;;;;;13.20;99.90;;;;;;6214295;23;19912;-95
2023/03/31 09:21:14;;;;;;;;;;;13.20;99.90;;;;;;6215535;23;19939;-92
2023/03/31 09:23:46;;;;;;;;;;;13.30;99.90;;;;;;6184991;23;19904;-93
2023/03/31 09:26:21;;;;;;;;;;;13.50;99.90;;;;;;6213598;23;19962;-95
2023/03/31 09:28:47;;;;;;;;;;;13.30;99.90;;;;;;6213097;23;20217;-94
2023/03/31 09:31:18;;;;;;;;;;;13.40;99.90;;;;;;6215014;23;19908;-93
2023/03/31 09:33:44;;;;;;;;;;;13.30;99.90;;;;;;6214064;23;20332;-92
2023/03/31 09:36:36;;;;;;;;;;;13.30;99.90;;;;;;6215522;23;20395;-94
2023/03/31 09:39:09;;;;;;;;;;;13.50;99.90;;;;;;6187311;23;19915;-92
2023/03/31 09:41:59;;;;;;;;;;;13.60;99.90;;;;;;6215211;23;20346;-95
2023/03/31 09:44:27;;;;;;;;;;;13.70;99.90;;;;;;6189758;23;20050;-94
2023/03/31 09:46:53;;;;;;;;;;;13.60;99.90;;;;;;6214264;23;19926;-94
2023/03/31 09:49:20;;;;;;;;;;;13.70;99.90;;;;;;6214916;23;19910;-95
2023/03/31 09:51:48;;;;;;;;;;;13.70;99.90;;;;;;6214123;23;19904;-94
2023/03/31 09:54:29;;;;;;;;;;;13.90;99.90;;;;;;6213596;23;19904;-93
2023/03/31 09:56:55;;;;;;;;;;;13.70;99.90;;;;;;6214139;23;19912;-91
2023/03/31 09:59:42;;;;;;;;;;;13.80;99.90;;;;;;6218350;23;19915;-94
2023/03/31 10:02:22;;;;;;;;;;;13.80;99.90;;;;;;6187670;23;19904;-94
2023/03/31 10:04:47;;;;;;;;;;;13.80;99.90;;;;;;6214270;23;19908;-92
2023/03/31 10:07:19;;;;;;;;;;;13.70;99.90;;;;;;6212049;23;19911;-92
2023/03/31 10:09:45;;;;;;;;;;;14.00;99.90;;;;;;6222163;23;19888;-90
2023/03/31 10:12:15;;;;;;;;;;;13.70;99.90;;;;;;6220230;23;19919;-93
2023/03/31 10:14:48;;;;;;;;;;;13.80;99.90;;;;;;6223380;23;19908;-94
2023/03/31 10:17:15;;;;;;;;;;;13.80;99.90;;;;;;6232340;23;19939;-94
2023/03/31 10:22:34;;;;;;;;;;;13.40;99.90;;;;;;6204013;23;19943;-94
2023/03/31 10:25:32;;;;;;;;;;;13.50;99.90;;;;;;6228321;23;20182;-95
2023/03/31 10:28:00;;;;;;;;;;;13.60;99.90;;;;;;6253925;23;19904;-92
2023/03/31 10:30:29;;;;;;;;;;;13.50;99.90;;;;;;6236304;23;19952;-93
2023/03/31 10:33:06;;;;;;;;;;;13.70;99.90;;;;;;6228867;23;20281;-92
2023/03/31 10:35:35;;;;;;;;;;;13.80;99.90;;;;;;6233846;23;19940;-94
2023/03/31 10:38:29;;;;;;;;;;;13.90;99.90;;;;;;6238466;23;19943;-92
2023/03/31 10:41:01;;;;;;;;;;;14.00;99.90;;;;;;6199512;23;19916;-96
2023/03/31 10:43:27;;;;;;;;;;;14.10;99.90;;;;;;6196590;23;19904;-91
2023/03/31 10:45:56;;;;;;;;;;;14.40;99.90;;;;;;6166650;23;19949;-93
2023/03/31 10:48:25;;;;;;;;;;;14.50;99.90;;;;;;6176509;23;19916;-93
2023/03/31 10:50:57;;;;;;;;;;;14.40;99.90;;;;;;6196125;23;19931;-91
2023/03/31 10:53:23;;;;;;;;;;;14.90;99.90;;;;;;6166240;23;19952;-92
2023/03/31 10:55:54;;;;;;;;;;;14.80;99.90;;;;;;6166839;23;19927;-90
2023/03/31 10:58:38;;;;;;;;;;;16.10;99.90;;;;;;6206386;23;19908;-91
2023/03/31 11:01:22;;;;;;;;;;;14.90;99.90;;;;;;6170658;23;19916;-92
2023/03/31 11:04:06;;;;;;;;;;;14.80;99.90;;;;;;6168948;23;19904;-92
2023/03/31 11:06:43;;;;;;;;;;;14.60;99.90;;;;;;6192194;23;20015;-92
2023/03/31 11:09:31;;;;;;;;;;;14.50;99.90;;;;;;6173914;23;19904;-91
2023/03/31 11:11:59;;;;;;;;;;;14.50;99.90;;;;;;6173784;23;19912;-91
2023/03/31 11:14:40;;;;;;;;;;;14.50;99.90;;;;;;6195337;23;19905;-91
2023/03/31 11:17:48;;;;;;;;;;;14.60;99.90;;;;;;6178462;23;19920;-93
2023/03/31 11:20:52;;;;;;;;;;;14.90;99.90;;;;;;6032471;23;19942;-92
2023/03/31 11:23:30;;;;;;;;;;;14.70;99.90;;;;;;6026955;23;19952;-92
2023/03/31 11:26:16;;;;;;;;;;;15.00;99.90;;;;;;6025331;23;19930;-93
2023/03/31 11:29:02;;;;;;;;;;;15.20;99.90;;;;;;6030156;23;19906;-93
2023/03/31 11:31:51;;;;;;;;;;;15.20;99.90;;;;;;6025174;23;19926;-92
2023/03/31 11:34:46;;;;;;;;;;;14.80;99.90;;;;;;5990193;23;19891;-93
2023/03/31 11:40:56;;;;;;;;;;;14.70;99.90;;;;;;6078176;23;19905;-91
2023/03/31 11:43:38;;;;;;;;;;;14.40;99.90;;;;;;6102372;23;20390;-93
2023/03/31 11:46:27;;;;;;;;;;;14.40;99.90;;;;;;6113238;23;19928;-94
2023/03/31 11:49:13;;;;;;;;;;;14.50;99.90;;;;;;6161632;23;19940;-93
2023/03/31 11:54:59;;;;;;;;;;;14.20;99.90;;;;;;6110563;23;20078;-91
2023/03/31 11:57:45;;;;;;;;;;;14.40;99.90;;;;;;6129131;23;19913;-92
2023/03/31 12:00:31;;;;;;;;;;;14.50;99.90;;;;;;6184456;23;19908;-91
2023/03/31 12:06:19;;;;;;;;;;;14.50;99.90;;;;;;6164167;23;20345;-93
2023/03/31 12:09:26;;;;;;;;;;;14.80;99.90;;;;;;6164675;23;19911;-92
2023/03/31 12:12:06;;;;;;;;;;;14.90;99.90;;;;;;6130089;23;19929;-94
2023/03/31 12:14:34;;;;;;;;;;;14.50;99.90;;;;;;6105528;23;20475;-92
2023/03/31 12:17:03;;;;;;;;;;;14.40;99.90;;;;;;6136874;23;19897;-93
2023/03/31 12:19:46;;;;;;;;;;;14.40;99.90;;;;;;6118365;23;19908;-92
2023/03/31 12:22:20;;;;;;;;;;;14.30;99.90;;;;;;6144996;23;19905;-89
2023/03/31 12:24:54;;;;;;;;;;;14.50;99.90;;;;;;6144063;23;19909;-93
2023/03/31 12:27:24;;;;;;;;;;;14.60;99.90;;;;;;6137540;23;19905;-91
2023/03/31 12:30:16;;;;;;;;;;;14.80;99.90;;;;;;6110240;23;19912;-91
2023/03/31 12:32:44;;;;;;;;;;;14.60;99.90;;;;;;6131383;23;19988;-92
2023/03/31 12:35:16;;;;;;;;;;;14.60;99.90;;;;;;6103540;23;19932;-93
2023/03/31 12:37:41;;;;;;;;;;;14.90;99.90;;;;;;6135575;23;19913;-92
2023/03/31 12:40:10;;;;;;;;;;;14.60;99.90;;;;;;6110572;23;19912;-91
2023/03/31 12:42:39;;;;;;;;;;;14.30;99.90;;;;;;6128897;23;19951;-93
2023/03/31 12:45:18;;;;;;;;;;;14.40;99.90;;;;;;6163051;23;19928;-91
2023/03/31 12:48:09;;;;;;;;;;;14.40;99.90;;;;;;6191705;23;19983;-90
2023/03/31 12:50:40;;;;;;;;;;;14.50;99.90;;;;;;6168559;23;19934;-91
2023/03/31 12:53:18;;;;;;;;;;;14.40;99.90;;;;;;6168471;23;19909;-92
2023/03/31 12:55:54;;;;;;;;;;;14.40;99.90;;;;;;6168449;23;19908;-91
2023/03/31 12:58:27;;;;;;;;;;;14.50;99.90;;;;;;6169551;23;19911;-91
2023/03/31 13:01:05;;;;;;;;;;;14.60;99.90;;;;;;6167415;23;20050;-93
2023/03/31 13:03:34;;;;;;;;;;;14.50;99.90;;;;;;6167494;23;20006;-92
2023/03/31 13:06:00;;;;;;;;;;;14.50;99.90;;;;;;6168861;23;19952;-93
2023/03/31 13:08:45;;;;;;;;;;;14.60;99.90;;;;;;6172816;23;19911;-91
2023/03/31 13:11:11;;;;;;;;;;;14.70;99.90;;;;;;6196266;23;20261;-90
2023/03/31 13:13:41;;;;;;;;;;;14.70;99.90;;;;;;6196785;23;19904;-93
2023/03/31 13:16:06;;;;;;;;;;;15.10;99.90;;;;;;6171531;23;19916;-91
2023/03/31 13:18:33;;;;;;;;;;;15.20;99.90;;;;;;6174622;23;19928;-92
2023/03/31 13:21:03;;;;;;;;;;;15.50;99.90;;;;;;6172621;23;19908;-93
2023/03/31 13:23:35;;;;;;;;;;;15.80;99.90;;;;;;6198747;23;19944;-93
2023/03/31 13:26:03;;;;;;;;;;;15.80;99.90;;;;;;6169142;23;19911;-92
2023/03/31 13:28:42;;;;;;;;;;;16.30;99.90;;;;;;6170256;23;19904;-92
2023/03/31 13:31:12;;;;;;;;;;;15.60;99.90;;;;;;6169424;23;19904;-93
2023/03/31 13:33:55;;;;;;;;;;;15.80;99.90;;;;;;6196120;23;19983;-91
2023/03/31 13:36:21;;;;;;;;;;;15.80;99.90;;;;;;6198985;23;19912;-92
2023/03/31 13:39:14;;;;;;;;;;;15.70;99.90;;;;;;6171447;23;19911;-93
2023/03/31 13:41:52;;;;;;;;;;;15.40;99.90;;;;;;6173434;23;19908;-93
2023/03/31 13:44:37;;;;;;;;;;;15.40;99.90;;;;;;6173144;23;20378;-91
2023/03/31 13:47:21;;;;;;;;;;;14.90;99.90;;;;;;6161056;23;19947;-90
2023/03/31 13:50:13;;;;;;;;;;;14.90;99.90;;;;;;6155448;23;20315;-92
2023/03/31 13:52:58;;;;;;;;;;;14.70;99.90;;;;;;6154170;23;19888;-91
2023/03/31 13:55:35;;;;;;;;;;;14.80;99.90;;;;;;6137975;23;19915;-94
2023/03/31 13:58:17;;;;;;;;;;;14.80;99.90;;;;;;6156161;23;19920;-91
2023/03/31 14:00:52;;;;;;;;;;;14.80;99.90;;;;;;6157122;23;19924;-92
2023/03/31 14:03:21;;;;;;;;;;;15.00;99.90;;;;;;6166281;23;19905;-93
2023/03/31 14:06:05;;;;;;;;;;;15.10;99.90;;;;;;6165097;23;19905;-92
2023/03/31 14:08:38;;;;;;;;;;;15.70;99.90;;;;;;6165836;23;19905;-95
2023/03/31 14:11:17;;;;;;;;;;;15.20;99.90;;;;;;6173475;23;19905;-90
2023/03/31 14:13:47;;;;;;;;;;;15.10;99.90;;;;;;6177782;23;19909;-92
2023/03/31 14:16:14;;;;;;;;;;;15.30;99.90;;;;;;6179555;23;19901;-91
2023/03/31 14:18:43;;;;;;;;;;;15.30;99.90;;;;;;6173891;23;19909;-91
2023/03/31 14:21:30;;;;;;;;;;;15.20;99.90;;;;;;6164916;23;19904;-92
2023/03/31 14:24:02;;;;;;;;;;;15.30;99.90;;;;;;6162449;23;20241;-93
2023/03/31 14:26:47;;;;;;;;;;;15.20;99.90;;;;;;6161963;23;19908;-93
2023/03/31 14:29:17;;;;;;;;;;;15.00;99.90;;;;;;6164424;23;19904;-92
2023/03/31 14:32:01;;;;;;;;;;;14.50;99.90;;;;;;6165849;23;19905;-92
2023/03/31 14:34:41;;;;;;;;;;;14.10;99.90;;;;;;6162696;23;19953;-91
2023/03/31 14:37:33;;;;;;;;;;;13.90;99.90;;;;;;6165038;23;19913;-93
2023/03/31 14:40:00;;;;;;;;;;;13.60;99.90;;;;;;6163419;23;19912;-92
2023/03/31 14:42:29;;;;;;;;;;;13.60;99.90;;;;;;6166710;23;19912;-94
2023/03/31 14:45:08;;;;;;;;;;;13.80;99.90;;;;;;6164944;23;19948;-92
2023/03/31 14:47:36;;;;;;;;;;;14.00;99.90;;;;;;6180998;23;19916;-93
2023/03/31 14:50:25;;;;;;;;;;;14.10;99.90;;;;;;6192289;23;19904;-92
2023/03/31 14:52:51;;;;;;;;;;;14.20;99.90;;;;;;6155880;23;20351;-91
2023/03/31 14:55:19;;;;;;;;;;;14.20;99.90;;;;;;6165334;23;19904;-91
2023/03/31 14:57:49;;;;;;;;;;;14.30;99.90;;;;;;6192497;23;19912;-91
2023/03/31 15:00:24;;;;;;;;;;;13.80;99.90;;;;;;6187601;23;19908;-93
2023/03/31 15:02:49;;;;;;;;;;;14.50;99.90;;;;;;6193747;23;19895;-92
2023/03/31 15:05:27;;;;;;;;;;;14.60;99.90;;;;;;6165700;23;19908;-92
2023/03/31 15:08:02;;;;;;;;;;;14.50;99.90;;;;;;6164346;23;19910;-91
2023/03/31 15:10:31;;;;;;;;;;;14.50;99.90;;;;;;6166646;23;19904;-91
2023/03/31 15:13:00;;;;;;;;;;;14.60;99.90;;;;;;6189942;23;19908;-91
2023/03/31 15:15:26;;;;;;;;;;;14.50;99.90;;;;;;6191677;23;19904;-93
2023/03/31 15:17:53;;;;;;;;;;;14.40;99.90;;;;;;6161649;23;19919;-91
2023/03/31 15:20:39;;;;;;;;;;;14.50;99.90;;;;;;6163095;23;19928;-92
2023/03/31 15:23:20;;;;;;;;;;;14.70;99.90;;;;;;6164254;23;19953;-92
2023/03/31 15:25:45;;;;;;;;;;;14.70;99.90;;;;;;6165177;23;19904;-94
2023/03/31 15:28:14;;;;;;;;;;;14.70;99.90;;;;;;6167237;23;19961;-93
2023/03/31 15:30:40;;;;;;;;;;;14.80;99.90;;;;;;6164404;23;19991;-92
2023/03/31 15:33:07;;;;;;;;;;;14.70;99.90;;;;;;6167515;23;19908;-92
2023/03/31 15:35:33;;;;;;;;;;;14.60;99.90;;;;;;6192470;23;19930;-91
2023/03/31 15:38:00;;;;;;;;;;;14.70;99.90;;;;;;6167120;23;19939;-92
2023/03/31 15:40:27;;;;;;;;;;;14.80;99.90;;;;;;6162735;23;19904;-91
2023/03/31 15:43:11;;;;;;;;;;;15.10;99.90;;;;;;6191266;23;19904;-92
2023/03/31 15:45:57;;;;;;;;;;;15.10;99.90;;;;;;6169494;23;19904;-91
2023/03/31 15:48:34;;;;;;;;;;;15.00;99.90;;;;;;6167930;23;19912;-92
2023/03/31 15:51:01;;;;;;;;;;;14.80;99.90;;;;;;6160958;23;19930;-91
2023/03/31 15:53:34;;;;;;;;;;;14.60;99.90;;;;;;6137920;23;20330;-92
2023/03/31 15:56:00;;;;;;;;;;;14.50;99.90;;;;;;6133327;23;19916;-92
2023/03/31 15:58:45;;;;;;;;;;;14.50;99.90;;;;;;6134143;23;19905;-91
2023/03/31 16:01:14;;;;;;;;;;;14.50;99.90;;;;;;6164978;23;20698;-90
2023/03/31 16:03:40;;;;;;;;;;;14.50;99.90;;;;;;6139122;23;19988;-91
2023/03/31 16:06:17;;;;;;;;;;;14.80;99.90;;;;;;6156483;23;20292;-93
2023/03/31 16:08:45;;;;;;;;;;;14.80;99.90;;;;;;6156870;23;19905;-92